03:03
Airports
Links
Donate
Help keep this website running!
PayPal
Bitcoin
METAR
EDDM 180250Z 33001KT 3000 -SN BR OVC007 M01/M02 Q1023 R08L/690395 R08R/590393 NOSIG
Current Weather Conditions at EDDM
IFR 02:50:00 18-02-18
Altimeter:30.21 hg
Temp:-1.0°c 30°f
Dew point:-2.0°c 28°f
Wind:1 knots, 1.2 mph, 1 m/s, from 330°
Visibility:1.86 statute miles
700(OVC) Overcast
No significant weather changes expected within 2 hours.
Past METAR reports
IFR 02:20:00 18-02-18
Altimeter:30.21 hg
Temp:-1.0°c 30°f
Dew point:-2.0°c 28°f
Wind:2 knots, 2.3 mph, 1 m/s,
Variable direction
Visibility:1.55 statute miles
700(OVC) Overcast
No significant weather changes expected within 2 hours.
EDDM 180220Z VRB02KT 2500 -SN BR OVC007 M01/M02 Q1023 R08L/690395 R08R/590393 NOSIG
IFR 01:50:00 18-02-18
Altimeter:30.21 hg
Temp:-1.0°c 30°f
Dew point:-2.0°c 28°f
Wind:2 knots, 2.3 mph, 1 m/s, from 320°
Visibility:1.55 statute miles
800(OVC) Overcast
No significant weather changes expected within 2 hours.
EDDM 180150Z 32002KT 2500 -SN BR OVC008 M01/M02 Q1023 R08L/690395 R08R/590393 NOSIG
IFR 01:20:00 18-02-18
Altimeter:30.21 hg
Temp:-1.0°c 30°f
Dew point:-2.0°c 28°f
Wind:1 knots, 1.2 mph, 1 m/s, from 310°
Visibility:1.18 statute miles
800(OVC) Overcast
No significant weather changes expected within 2 hours.
EDDM 180120Z 31001KT 1900 -SN BR OVC008 M01/M02 Q1023 R08L/690395 R08R/590393 NOSIG
IFR 00:50:00 18-02-18
Altimeter:30.18 hg
Temp:-1.0°c 30°f
Dew point:-2.0°c 28°f
Wind:1 knots, 1.2 mph, 1 m/s,
Variable direction
Visibility:1.12 statute miles
700(OVC) Overcast
No significant weather changes expected within 2 hours.
EDDM 180050Z VRB01KT 1800 -SN BR OVC007 M01/M02 Q1022 R08L/690395 R08R/590393 NOSIG
LIFR 00:20:00 18-02-18
Altimeter:30.18 hg
Temp:-1.0°c 30°f
Dew point:-2.0°c 28°f
Wind:3 knots, 3.5 mph, 2 m/s, from 350°
Visibility:0.93 statute miles
700(OVC) Overcast
No significant weather changes expected within 2 hours.
EDDM 180020Z 35003KT 310V020 1500 -SN BR OVC007 M01/M02 Q1022 R08L/690395 R08R/590393 NOSIG
LIFR 23:50:00 17-02-18
Altimeter:30.18 hg
Temp:-1.0°c 30°f
Dew point:-1.0°c 30°f
Wind:2 knots, 2.3 mph, 1 m/s, from 350°
Visibility:0.93 statute miles
700(OVC) Overcast
EDDM 172350Z 35002KT 1500 -SN BR OVC007 M01/M01 Q1022 R08L/690395 R08R/590393 TEMPO 1200 SN BKN004
TAF
TAF EDDM 172300Z 1800/1906 35004KT 3000 -SN BKN007 TEMPO 1800/1808 1400 -SN BKN004 BECMG 1806/1808 07006KT BECMG 1808/1810 8000 BKN010 BECMG 1810/1812 BKN020 PROB40 TEMPO 1903/1906 BKN007
Forecast at EDDM
00:00 18-02-18 to 06:00 18-02-18
-SN
Wind:4 Knots from 350°
Visibility:1.86 statute miles
700BKN Broken
TEMPO 00:00 18-02-18 to 08:00 18-02-18
-SN
Visibility:0.87 statute miles
400BKN Broken
BECMG 06:00 18-02-18 to 08:00 18-02-18
-SN
Wind:6 Knots from 70°
Visibility:1.86 statute miles
700BKN Broken
BECMG 08:00 18-02-18 to 10:00 18-02-18
-SN
Wind:6 Knots from 70°
Visibility:4.97 statute miles
1000BKN Broken
BECMG 10:00 18-02-18 to 06:00 19-02-18
-SN
Wind:6 Knots from 70°
Visibility:4.97 statute miles
2000BKN Broken
TEMPO 03:00 19-02-18 to 06:00 19-02-18
40%
700BKN Broken